Time;durP1;ratioP1;P1;durP2;ratioP2;P2;SDS_P1;SDS_P2;PMS_P1;PMS_P2;Temp;Humidity;BMP_temperature;BMP_pressure;BME280_temperature;BME280_humidity;BME280_pressure;Samples;Min_cycle;Max_cycle;Signal;HPM_P1;HPM_P2
2021/05/24 00:00:49;;;;;;;2.35;1.00;;;;;;;5.38;89.98;99205.56;3626873;39;20043;-63
2021/05/24 00:03:16;;;;;;;1.23;0.90;;;;;;;5.34;90.11;99202.31;3626935;39;20053;-62
2021/05/24 00:05:44;;;;;;;3.20;1.00;;;;;;;5.36;90.48;99200.47;3627139;39;20054;-62
2021/05/24 00:08:11;;;;;;;1.63;0.80;;;;;;;5.39;90.23;99199.44;3617748;39;20061;-62
2021/05/24 00:10:40;;;;;;;1.77;0.70;;;;;;;5.35;90.19;99195.38;3627407;39;20054;-62
2021/05/24 00:13:10;;;;;;;1.38;0.60;;;;;;;5.39;89.94;99189.88;3627092;39;20049;-63
2021/05/24 00:15:42;;;;;;;1.17;0.80;;;;;;;5.43;89.59;99200.88;3627075;39;20046;-62
2021/05/24 00:18:10;;;;;;;1.98;0.80;;;;;;;5.40;89.63;99198.50;3621677;39;20043;-62
2021/05/24 00:20:46;;;;;;;1.75;0.80;;;;;;;5.39;89.56;99189.88;3617964;39;20409;-62
2021/05/24 00:23:13;;;;;;;1.20;0.65;;;;;;;5.35;90.15;99193.59;3617989;39;20051;-62
2021/05/24 00:25:41;;;;;;;1.60;0.90;;;;;;;5.34;90.04;99191.97;3619125;39;20063;-65
2021/05/24 00:28:12;;;;;;;0.95;0.65;;;;;;;5.28;90.16;99189.78;3608390;39;20062;-61
2021/05/24 00:30:42;;;;;;;1.23;0.70;;;;;;;5.28;89.80;99194.97;3617845;39;20055;-61
2021/05/24 00:33:09;;;;;;;1.50;0.82;;;;;;;5.27;90.07;99190.72;3621572;39;20420;-62
2021/05/24 00:35:37;;;;;;;1.23;0.60;;;;;;;5.21;90.33;99196.28;3626531;39;20047;-60
2021/05/24 00:38:06;;;;;;;8.07;0.68;;;;;;;5.28;90.36;99188.97;3623601;39;20050;-61
2021/05/24 00:40:35;;;;;;;1.08;0.60;;;;;;;5.20;91.12;99192.06;3617823;39;20084;-61
2021/05/24 00:43:05;;;;;;;1.98;0.70;;;;;;;5.20;91.32;99194.66;3617718;39;20067;-61
2021/05/24 00:45:33;;;;;;;1.67;0.68;;;;;;;5.21;91.29;99185.09;3617770;39;20102;-59
2021/05/24 00:48:00;;;;;;;1.35;0.60;;;;;;;5.22;90.92;99189.34;3617982;39;20066;-61
2021/05/24 00:50:28;;;;;;;0.93;0.60;;;;;;;5.25;90.14;99186.56;3617892;39;20043;-61
2021/05/24 00:52:55;;;;;;;1.23;0.60;;;;;;;5.22;90.45;99181.56;3626290;39;20042;-61
2021/05/24 00:55:22;;;;;;;1.83;0.80;;;;;;;5.20;90.81;99175.69;3627066;39;20312;-61
2021/05/24 00:57:50;;;;;;;2.55;0.60;;;;;;;5.18;90.88;99178.38;3626471;39;20051;-61
2021/05/24 01:00:40;;;;;;;1.05;0.60;;;;;;;5.20;90.65;99173.91;3626963;39;20043;-60
2021/05/24 01:03:09;;;;;;;39.40;24.50;;;;;;;5.16;91.05;99177.63;3617727;39;20058;-63
2021/05/24 01:05:40;;;;;;;29.15;13.32;;;;;;;5.16;92.04;99177.63;3624053;39;20065;-62
2021/05/24 01:08:11;;;;;;;20.08;11.63;;;;;;;5.18;91.02;99180.16;3626562;39;20074;-60
2021/05/24 01:10:40;;;;;;;5.20;2.75;;;;;;;5.19;90.62;99179.22;3626798;39;20058;-62
2021/05/24 01:13:10;;;;;;;0.88;0.68;;;;;;;5.14;91.63;99175.16;3626680;39;20062;-60
2021/05/24 01:15:37;;;;;;;1.27;0.60;;;;;;;5.17;90.43;99176.69;3626574;39;20065;-62
2021/05/24 01:18:05;;;;;;;0.57;0.38;;;;;;;5.16;90.80;99176.81;3621278;39;20066;-62
2021/05/24 01:20:32;;;;;;;0.95;0.52;;;;;;;5.14;91.56;99171.75;3619426;39;20051;-62
2021/05/24 01:25:34;;;;;;;0.60;0.55;;;;;;;5.13;90.97;99176.09;3617785;39;20043;-62
2021/05/24 01:28:04;;;;;;;0.60;0.40;;;;;;;5.14;90.88;99179.50;3617464;39;20299;-62
2021/05/24 01:30:32;;;;;;;0.40;0.40;;;;;;;5.13;91.31;99173.50;3617419;39;20058;-61
2021/05/24 01:33:01;;;;;;;0.80;0.43;;;;;;;5.13;91.18;99170.09;3617487;39;20082;-61
2021/05/24 01:35:28;;;;;;;0.60;0.30;;;;;;;5.16;91.58;99177.63;3617964;39;20058;-61
2021/05/24 01:37:56;;;;;;;0.40;0.30;;;;;;;5.15;90.50;99165.63;3620254;39;20082;-64
2021/05/24 01:40:25;;;;;;;0.50;0.32;;;;;;;5.17;91.70;99168.09;3626463;39;20557;-65
2021/05/24 01:42:58;;;;;;;0.45;0.30;;;;;;;5.19;91.14;99167.06;3616917;39;20083;-60
2021/05/24 01:45:26;;;;;;;0.63;0.30;;;;;;;5.16;91.57;99164.69;3617495;39;20048;-60
2021/05/24 01:47:54;;;;;;;0.43;0.35;;;;;;;5.20;91.18;99168.72;3617105;39;20090;-61
2021/05/24 01:50:22;;;;;;;0.50;0.40;;;;;;;5.22;90.43;99161.69;3617410;39;20055;-61
2021/05/24 01:52:50;;;;;;;1.10;0.40;;;;;;;5.20;91.41;99163.53;3617145;39;20032;-62
2021/05/24 01:55:17;;;;;;;0.63;0.43;;;;;;;5.20;91.46;99154.94;3617357;39;20043;-61
2021/05/24 01:57:45;;;;;;;0.30;0.30;;;;;;;5.17;91.18;99168.09;3617388;39;20047;-61
2021/05/24 02:00:16;;;;;;;0.68;0.47;;;;;;;5.18;91.24;99162.84;3617323;39;20067;-61
2021/05/24 02:02:44;;;;;;;0.30;0.30;;;;;;;5.21;91.30;99160.00;3617376;39;20304;-61
2021/05/24 02:05:13;;;;;;;1.23;0.40;;;;;;;5.22;91.56;99156.50;3617338;39;20136;-61
2021/05/24 02:07:42;;;;;;;0.30;0.30;;;;;;;5.21;91.39;99159.19;3617083;39;20413;-61
2021/05/24 02:10:13;;;;;;;0.60;0.50;;;;;;;5.19;92.18;99154.13;3626283;39;20139;-61
2021/05/24 02:12:40;;;;;;;0.30;0.30;;;;;;;5.21;91.39;99164.38;3626264;39;20329;-60
2021/05/24 02:15:09;;;;;;;0.73;0.40;;;;;;;5.22;91.93;99160.84;3625989;39;20050;-61
2021/05/24 02:17:37;;;;;;;0.40;0.20;;;;;;;5.22;92.44;99166.88;3623823;39;20058;-61
2021/05/24 02:20:06;;;;;;;0.20;0.20;;;;;;;5.19;92.50;99154.13;3607671;39;20105;-60
2021/05/24 02:22:34;;;;;;;0.40;0.30;;;;;;;5.18;91.84;99168.00;3617207;39;20047;-61
2021/05/24 02:25:01;;;;;;;0.52;0.40;;;;;;;5.22;90.69;99166.88;3618309;39;20051;-61
2021/05/24 02:27:28;;;;;;;0.63;0.30;;;;;;;5.22;91.34;99158.25;3618827;39;20050;-61
2021/05/24 02:29:56;;;;;;;0.65;0.30;;;;;;;5.22;91.45;99160.84;3618374;39;20428;-60
2021/05/24 02:32:23;;;;;;;1.17;0.50;;;;;;;5.24;91.37;99169.34;3609236;39;20086;-62
2021/05/24 02:34:50;;;;;;;0.45;0.30;;;;;;;5.22;91.37;99168.63;3608968;39;20051;-62
2021/05/24 02:37:19;;;;;;;0.40;0.30;;;;;;;5.25;90.89;99173.59;3619059;39;20047;-62
2021/05/24 02:39:46;;;;;;;0.75;0.40;;;;;;;5.22;91.15;99172.06;3627650;39;20097;-62
2021/05/24 02:42:13;;;;;;;0.35;0.30;;;;;;;5.28;91.50;99178.59;3627769;39;20051;-62
2021/05/24 02:44:41;;;;;;;1.35;0.30;;;;;;;5.23;92.46;99172.88;3620745;39;20067;-62
2021/05/24 02:47:08;;;;;;;0.63;0.30;;;;;;;5.28;90.92;99178.59;3618494;39;20051;-61
2021/05/24 02:49:37;;;;;;;0.95;0.35;;;;;;;5.30;91.40;99168.94;3618725;39;20687;-59
2021/05/24 02:52:05;;;;;;;0.30;0.30;;;;;;;5.31;90.97;99166.22;3618503;39;20055;-60
2021/05/24 02:54:32;;;;;;;0.50;0.30;;;;;;;5.30;90.57;99174.94;3627603;39;20139;-59
2021/05/24 02:57:00;;;;;;;0.50;0.30;;;;;;;5.30;90.68;99169.75;3627645;39;20057;-60
2021/05/24 02:59:27;;;;;;;0.52;0.30;;;;;;;5.29;91.35;99169.88;3627412;39;20383;-60
2021/05/24 03:01:54;;;;;;;0.20;0.20;;;;;;;5.34;90.79;99179.00;3627446;39;20332;-60
2021/05/24 03:04:27;;;;;;;0.52;0.30;;;;;;;5.23;92.01;99173.72;3618426;39;20059;-60
2021/05/24 03:06:54;;;;;;;0.32;0.20;;;;;;;5.27;91.44;99174.31;3618406;39;20050;-61
2021/05/24 03:09:21;;;;;;;0.30;0.30;;;;;;;5.27;91.00;99174.31;3618657;39;20070;-60
2021/05/24 03:11:50;;;;;;;0.60;0.30;;;;;;;5.22;90.69;99166.88;3618185;39;20051;-61
2021/05/24 03:14:18;;;;;;;0.35;0.30;;;;;;;5.25;90.94;99174.44;3620169;39;20109;-60
2021/05/24 03:16:45;;;;;;;0.30;0.30;;;;;;;5.28;91.12;99165.63;3608811;39;20452;-61
2021/05/24 03:19:12;;;;;;;0.70;0.38;;;;;;;5.31;91.25;99171.41;3627160;39;20045;-61
2021/05/24 03:21:41;;;;;;;0.77;0.30;;;;;;;5.27;91.02;99170.00;3618400;39;20043;-61
2021/05/24 03:24:09;;;;;;;0.47;0.40;;;;;;;5.27;91.23;99177.75;3618151;39;20070;-61
2021/05/24 03:26:36;;;;;;;1.67;0.80;;;;;;;5.25;89.55;99164.06;3615230;39;20055;-61
2021/05/24 03:29:04;;;;;;;1.58;0.30;;;;;;;5.28;90.35;99179.41;3627118;39;20047;-63
2021/05/24 03:31:31;;;;;;;0.30;0.30;;;;;;;5.28;90.90;99170.81;3617721;39;20053;-62
2021/05/24 03:33:59;;;;;;;0.50;0.30;;;;;;;5.22;90.71;99176.38;3627205;39;20050;-61
2021/05/24 03:36:27;;;;;;;0.40;0.30;;;;;;;5.29;90.39;99180.25;3626580;39;20051;-61
2021/05/24 03:38:54;;;;;;;0.35;0.28;;;;;;;5.28;90.84;99179.41;3620585;39;20076;-61
2021/05/24 03:41:21;;;;;;;0.75;0.40;;;;;;;5.29;90.19;99180.25;3618232;39;20063;-61
2021/05/24 03:43:49;;;;;;;0.32;0.20;;;;;;;5.28;90.68;99171.63;3618279;39;20191;-61
2021/05/24 03:46:16;;;;;;;0.20;0.20;;;;;;;5.30;90.33;99168.94;3618289;39;20058;-61
2021/05/24 03:48:44;;;;;;;0.25;0.25;;;;;;;5.30;89.52;99171.53;3618203;39;20062;-60
2021/05/24 03:51:11;;;;;;;0.50;0.40;;;;;;;5.29;90.91;99178.47;3617901;39;20050;-61
2021/05/24 03:53:38;;;;;;;0.47;0.30;;;;;;;5.28;91.08;99170.81;3618087;39;20039;-61
2021/05/24 03:56:05;;;;;;;0.65;0.30;;;;;;;5.30;90.94;99174.13;3618541;39;20044;-61
2021/05/24 03:58:33;;;;;;;0.70;0.30;;;;;;;5.28;90.18;99183.78;3617903;39;20046;-61
2021/05/24 04:01:00;;;;;;;0.82;0.35;;;;;;;5.29;90.18;99182.84;3608670;39;20401;-61
2021/05/24 04:03:27;;;;;;;0.50;0.30;;;;;;;5.29;90.75;99175.06;3617810;39;20075;-61
2021/05/24 04:06:00;;;;;;;0.70;0.50;;;;;;;5.29;90.65;99185.44;3617831;39;20101;-61
2021/05/24 04:08:35;;;;;;;0.43;0.40;;;;;;;5.33;90.42;99179.94;3618042;39;20059;-62
2021/05/24 04:11:05;;;;;;;0.40;0.40;;;;;;;5.25;91.29;99182.19;3617972;39;20039;-61
2021/05/24 04:13:32;;;;;;;0.20;0.20;;;;;;;5.28;91.22;99179.41;3625178;39;20382;-61
2021/05/24 04:16:00;;;;;;;2.28;0.30;;;;;;;5.30;91.66;99185.31;3627191;39;20046;-61
2021/05/24 04:18:30;;;;;;;0.90;0.50;;;;;;;5.30;90.59;99194.84;3620543;39;20059;-61
2021/05/24 04:20:58;;;;;;;0.30;0.30;;;;;;;5.24;91.02;99188.31;3618008;39;20099;-61
2021/05/24 04:23:26;;;;;;;0.30;0.30;;;;;;;5.27;91.12;99192.47;3617813;39;20055;-60
2021/05/24 04:25:53;;;;;;;0.50;0.32;;;;;;;5.28;91.04;99187.19;3617826;39;20333;-60
2021/05/24 04:28:21;;;;;;;0.25;0.25;;;;;;;5.27;90.84;99188.13;3617749;39;20051;-61
2021/05/24 04:30:49;;;;;;;0.47;0.30;;;;;;;5.32;90.89;99200.78;3618037;39;20051;-60
2021/05/24 04:33:16;;;;;;;0.30;0.30;;;;;;;5.34;91.19;99194.56;3608080;39;20701;-60
2021/05/24 04:35:44;;;;;;;0.30;0.30;;;;;;;5.32;91.42;99195.59;3617683;39;20039;-60
2021/05/24 04:38:12;;;;;;;0.40;0.30;;;;;;;5.29;91.12;99188.84;3621699;39;20043;-60
2021/05/24 04:40:39;;;;;;;2.05;0.30;;;;;;;5.34;91.86;99193.72;3626960;39;20054;-62
2021/05/24 04:43:06;;;;;;;0.30;0.30;;;;;;;5.31;91.13;99191.31;3627007;39;20131;-61
2021/05/24 04:45:33;;;;;;;1.00;0.32;;;;;;;5.35;90.54;99203.16;3627135;39;20042;-61
2021/05/24 04:48:01;;;;;;;0.40;0.20;;;;;;;5.33;90.60;99202.44;3626286;39;20038;-61
2021/05/24 04:50:28;;;;;;;0.85;0.30;;;;;;;5.35;90.47;99206.56;3627090;39;20046;-61
2021/05/24 04:52:55;;;;;;;1.38;0.40;;;;;;;5.38;90.86;99202.97;3620832;39;20428;-61
2021/05/24 04:55:23;;;;;;;1.95;0.30;;;;;;;5.37;90.96;99202.13;3617779;39;20425;-62
2021/05/24 04:57:50;;;;;;;0.30;0.30;;;;;;;5.43;91.47;99202.66;3626537;39;20062;-61
2021/05/24 05:00:18;;;;;;;0.20;0.20;;;;;;;5.45;90.93;99204.19;3626756;39;20083;-61
2021/05/24 05:02:45;;;;;;;0.40;0.40;;;;;;;5.48;90.63;99203.16;3626674;39;20057;-61
2021/05/24 05:05:13;;;;;;;0.40;0.30;;;;;;;5.44;90.11;99210.31;3624614;39;20061;-61
2021/05/24 05:07:40;;;;;;;0.30;0.30;;;;;;;5.49;90.49;99212.59;3618802;39;20428;-61
2021/05/24 05:10:08;;;;;;;0.30;0.30;;;;;;;5.55;89.98;99210.41;3617462;39;20542;-62
2021/05/24 05:12:35;;;;;;;1.95;0.50;;;;;;;5.52;90.43;99210.63;3617636;39;20050;-61
2021/05/24 05:15:03;;;;;;;0.40;0.30;;;;;;;5.52;90.71;99220.19;3617697;39;20055;-61
2021/05/24 05:17:31;;;;;;;0.82;0.32;;;;;;;5.48;90.99;99222.16;3620262;39;20052;-61
2021/05/24 05:19:59;;;;;;;0.50;0.30;;;;;;;5.49;90.91;99218.59;3626897;39;20123;-61
2021/05/24 05:22:26;;;;;;;0.82;0.50;;;;;;;5.51;90.81;99221.13;3617721;39;20054;-62
2021/05/24 05:24:53;;;;;;;0.40;0.30;;;;;;;5.53;90.87;99233.03;3616638;39;20409;-60
2021/05/24 05:27:21;;;;;;;2.78;1.73;;;;;;;5.58;90.78;99233.56;3627004;39;20050;-65
2021/05/24 05:29:48;;;;;;;0.75;0.30;;;;;;;5.63;91.20;99236.66;3626578;39;20344;-61
2021/05/24 05:32:15;;;;;;;0.50;0.50;;;;;;;5.66;90.21;99238.22;3626375;39;20082;-62
2021/05/24 05:34:43;;;;;;;1.20;0.65;;;;;;;5.67;90.85;99242.47;3626686;39;20131;-61
2021/05/24 05:37:11;;;;;;;19.38;6.38;;;;;;;5.64;90.22;99246.09;3626481;39;20455;-59
2021/05/24 05:39:38;;;;;;;4.88;1.30;;;;;;;5.62;90.80;99242.78;3617477;39;20439;-61
2021/05/24 05:42:05;;;;;;;0.85;0.30;;;;;;;5.58;90.36;99251.69;3617525;39;20064;-61
2021/05/24 05:44:33;;;;;;;0.20;0.20;;;;;;;5.52;91.78;99254.72;3617582;39;20043;-61
2021/05/24 05:47:00;;;;;;;0.63;0.40;;;;;;;5.53;90.96;99255.53;3617378;39;20083;-62
2021/05/24 05:49:27;;;;;;;0.40;0.30;;;;;;;5.55;91.04;99259.69;3617339;39;20054;-61
2021/05/24 05:51:55;;;;;;;0.20;0.20;;;;;;;5.54;91.47;99258.03;3617079;39;20409;-62
2021/05/24 05:54:22;;;;;;;58.03;23.30;;;;;;;5.57;91.21;99264.78;3617041;39;20313;-60
2021/05/24 05:56:49;;;;;;;9.30;3.90;;;;;;;5.56;90.96;99266.56;3617347;39;20054;-61
2021/05/24 05:59:20;;;;;;;0.95;0.60;;;;;;;5.53;91.50;99265.91;3618198;39;20079;-61
2021/05/24 06:01:47;;;;;;;0.75;0.40;;;;;;;5.55;90.62;99271.81;3618778;39;20084;-61
2021/05/24 06:04:15;;;;;;;0.60;0.40;;;;;;;5.56;90.38;99278.69;3620804;39;20325;-63
2021/05/24 06:06:42;;;;;;;0.68;0.40;;;;;;;5.60;90.74;99280.13;3618961;39;20333;-61
2021/05/24 06:09:09;;;;;;;0.60;0.35;;;;;;;5.61;90.44;99284.41;3618612;39;20440;-61
2021/05/24 06:11:36;;;;;;;0.40;0.38;;;;;;;5.56;90.20;99284.72;3618774;39;20338;-61
2021/05/24 06:14:04;;;;;;;22.50;9.27;;;;;;;5.57;90.77;99288.13;3618728;39;20536;-62
2021/05/24 06:16:31;;;;;;;9.38;2.47;;;;;;;5.53;90.32;99289.25;3618532;39;20313;-64
2021/05/24 06:18:58;;;;;;;3.08;0.73;;;;;;;5.54;90.56;99298.69;3627182;39;20057;-62
2021/05/24 06:21:26;;;;;;;0.70;0.40;;;;;;;5.60;90.24;99312.09;3619036;39;20046;-62
2021/05/24 06:23:53;;;;;;;2.08;0.32;;;;;;;5.62;90.61;99304.22;3618501;39;20071;-61
2021/05/24 06:26:20;;;;;;;31.05;12.65;;;;;;;5.68;90.05;99308.97;3618572;39;20087;-69
2021/05/24 06:28:48;;;;;;;5.10;1.98;;;;;;;5.59;90.25;99310.41;3619285;39;20071;-62
2021/05/24 06:31:16;;;;;;;2.05;0.63;;;;;;;5.61;90.36;99321.53;3625927;39;20043;-61
2021/05/24 06:33:44;;;;;;;0.65;0.40;;;;;;;5.60;89.96;99319.03;3628200;39;20320;-60
2021/05/24 06:36:11;;;;;;;1.20;0.50;;;;;;;5.59;89.69;99325.16;3627912;39;20055;-61
2021/05/24 06:38:39;;;;;;;0.65;0.38;;;;;;;5.61;89.87;99338.88;3621808;39;20047;-62
2021/05/24 06:41:06;;;;;;;0.45;0.30;;;;;;;5.60;90.09;99340.63;3618822;39;20305;-64
2021/05/24 06:43:33;;;;;;;2.17;0.30;;;;;;;5.58;90.17;99339.88;3622391;39;20047;-64
2021/05/24 06:46:00;;;;;;;8.55;3.67;;;;;;;5.59;89.72;99344.13;3627600;39;20054;-59
2021/05/24 06:48:28;;;;;;;2.75;0.90;;;;;;;5.58;90.13;99345.06;3618569;39;20398;-60
2021/05/24 06:50:55;;;;;;;0.30;0.30;;;;;;;5.65;90.07;99353.31;3618508;39;20054;-63
2021/05/24 06:53:22;;;;;;;0.38;0.35;;;;;;;5.59;90.31;99351.09;3618253;39;20047;-62
2021/05/24 06:55:50;;;;;;;0.73;0.40;;;;;;;5.59;91.50;99349.31;3618449;39;20035;-61
2021/05/24 06:58:17;;;;;;;0.85;0.50;;;;;;;5.64;91.08;99351.59;3619035;39;20055;-62
2021/05/24 07:00:45;;;;;;;0.50;0.40;;;;;;;5.68;90.73;99352.25;3618591;39;20334;-62
2021/05/24 07:03:12;;;;;;;0.45;0.30;;;;;;;5.69;90.72;99359.91;3618390;39;20055;-61
2021/05/24 07:05:40;;;;;;;0.43;0.30;;;;;;;5.55;90.31;99365.19;3618313;39;20071;-62
2021/05/24 07:08:07;;;;;;;1.67;0.50;;;;;;;5.53;91.02;99375.66;3617486;39;20440;-63
2021/05/24 07:10:34;;;;;;;1.48;0.88;;;;;;;5.61;90.54;99376.00;3608921;39;20087;-63
2021/05/24 07:13:02;;;;;;;0.68;0.38;;;;;;;5.67;90.99;99379.13;3618491;39;20051;-63
2021/05/24 07:15:29;;;;;;;0.77;0.30;;;;;;;5.67;89.64;99386.91;3618260;39;20075;-63
2021/05/24 07:17:57;;;;;;;0.80;0.38;;;;;;;5.73;90.04;99382.13;3622919;39;20043;-63
2021/05/24 07:20:24;;;;;;;1.15;0.40;;;;;;;5.61;90.27;99394.16;3627560;39;20090;-62
2021/05/24 07:22:51;;;;;;;0.40;0.40;;;;;;;5.61;89.54;99388.97;3627395;39;20069;-62
2021/05/24 07:25:19;;;;;;;1.85;0.30;;;;;;;5.65;90.13;99400.00;3627405;39;20043;-63
2021/05/24 07:27:47;;;;;;;0.20;0.20;;;;;;;5.67;90.10;99400.72;3627469;39;20524;-63
2021/05/24 07:30:15;;;;;;;0.68;0.40;;;;;;;5.76;90.53;99409.66;3627397;39;20055;-63
2021/05/24 07:32:44;;;;;;;0.68;0.20;;;;;;;5.74;90.46;99409.72;3627063;39;20051;-61
2021/05/24 07:35:12;;;;;;;1.30;0.32;;;;;;;5.80;89.58;99413.72;3618253;39;20054;-63
2021/05/24 07:37:40;;;;;;;0.70;0.28;;;;;;;5.84;89.57;99413.41;3619576;39;20175;-62
2021/05/24 07:40:09;;;;;;;0.52;0.30;;;;;;;5.82;88.98;99420.44;3627478;39;20453;-63
2021/05/24 07:42:37;;;;;;;1.23;0.50;;;;;;;5.92;89.12;99422.47;3626930;39;20440;-63
2021/05/24 07:45:05;;;;;;;1.48;0.57;;;;;;;5.89;89.41;99428.69;3627294;39;20068;-63
2021/05/24 07:47:33;;;;;;;0.47;0.30;;;;;;;5.95;89.88;99425.69;3627313;39;20082;-62
2021/05/24 07:50:02;;;;;;;2.85;0.30;;;;;;;5.97;89.86;99434.22;3627090;39;20282;-63
2021/05/24 07:52:29;;;;;;;0.47;0.40;;;;;;;5.93;89.44;99434.50;3618114;39;20055;-63
2021/05/24 07:55:02;;;;;;;0.75;0.30;;;;;;;5.96;89.40;99434.31;3619640;39;20858;-63
2021/05/24 07:57:29;;;;;;;1.10;0.38;;;;;;;5.96;89.69;99437.75;3618099;39;20054;-63
2021/05/24 07:59:59;;;;;;;0.22;0.22;;;;;;;5.94;88.59;99444.81;3618386;39;20058;-63
2021/05/24 08:02:27;;;;;;;0.45;0.20;;;;;;;6.04;88.90;99450.22;3627324;39;20704;-63
2021/05/24 08:04:54;;;;;;;1.30;0.40;;;;;;;6.01;88.51;99453.00;3627399;39;20065;-63
2021/05/24 08:07:22;;;;;;;1.70;1.00;;;;;;;5.80;87.66;99460.41;3627065;39;20061;-62
2021/05/24 08:09:50;;;;;;;1.98;0.52;;;;;;;5.75;87.78;99463.31;3627199;39;20414;-62
2021/05/24 08:12:17;;;;;;;3.20;1.80;;;;;;;5.74;88.79;99469.41;3626929;39;20038;-62
2021/05/24 08:14:45;;;;;;;1.35;0.70;;;;;;;5.68;87.99;99471.56;3627372;39;20445;-62
2021/05/24 08:17:12;;;;;;;2.90;0.35;;;;;;;5.63;88.50;99472.69;3619374;39;20038;-63
2021/05/24 08:19:39;;;;;;;0.70;0.40;;;;;;;5.63;88.60;99477.88;3627174;39;20301;-63
2021/05/24 08:22:06;;;;;;;2.30;1.48;;;;;;;5.78;88.14;99483.00;3626604;39;20057;-63
2021/05/24 08:24:34;;;;;;;1.88;1.10;;;;;;;5.84;89.11;99483.47;3626972;39;20087;-62
2021/05/24 08:27:01;;;;;;;1.50;0.70;;;;;;;5.80;88.18;99488.94;3617709;39;20120;-63
2021/05/24 08:29:29;;;;;;;1.17;0.60;;;;;;;5.75;86.57;99493.59;3618021;39;20062;-62
2021/05/24 08:31:57;;;;;;;1.42;0.60;;;;;;;5.73;87.53;99503.25;3618042;39;20128;-62
2021/05/24 08:34:24;;;;;;;0.73;0.40;;;;;;;5.70;87.46;99504.28;3617813;39;20039;-63
2021/05/24 08:36:52;;;;;;;1.45;0.95;;;;;;;5.75;87.61;99502.22;3617930;39;20050;-62
2021/05/24 08:39:19;;;;;;;1.95;0.63;;;;;;;5.79;87.40;99513.22;3625827;39;20068;-62
2021/05/24 08:41:47;;;;;;;1.15;0.95;;;;;;;5.75;88.04;99514.38;3626727;39;20278;-62
2021/05/24 08:44:18;;;;;;;0.73;0.50;;;;;;;5.77;87.86;99515.91;3618815;39;20090;-62
2021/05/24 08:46:48;;;;;;;1.52;0.60;;;;;;;5.69;88.12;99515.56;3619757;39;20055;-62
2021/05/24 08:49:36;;;;;;;1.77;0.90;;;;;;;5.68;88.94;99521.69;3625167;39;20054;-61
2021/05/24 08:52:08;;;;;;;1.38;0.70;;;;;;;5.53;87.79;99526.09;3620466;39;20051;-63
2021/05/24 08:54:37;;;;;;;4.18;3.10;;;;;;;5.46;87.19;99527.41;3617401;39;20379;-62
2021/05/24 08:57:05;;;;;;;1.58;1.17;;;;;;;5.45;87.58;99530.09;3617526;39;20062;-62
2021/05/24 08:59:32;;;;;;;4.03;1.40;;;;;;;5.27;87.46;99540.69;3617385;39;20083;-63
2021/05/24 09:02:00;;;;;;;2.15;1.13;;;;;;;5.20;87.63;99541.16;3617681;39;20055;-62
2021/05/24 09:04:42;;;;;;;3.25;1.60;;;;;;;5.19;87.34;99545.50;3626847;39;20086;-61
2021/05/24 09:07:12;;;;;;;1.13;0.60;;;;;;;5.17;87.59;99544.75;3626749;39;20131;-62
2021/05/24 09:09:39;;;;;;;1.05;0.50;;;;;;;5.22;87.09;99547.91;3617640;39;20359;-60
2021/05/24 09:12:21;;;;;;;0.47;0.43;;;;;;;5.27;87.98;99553.66;3617463;39;20059;-62
2021/05/24 09:14:57;;;;;;;1.35;0.60;;;;;;;5.34;88.74;99557.50;3626552;39;20086;-62
2021/05/24 09:17:24;;;;;;;0.60;0.40;;;;;;;5.36;88.46;99552.22;3624320;39;20042;-61
2021/05/24 09:19:52;;;;;;;1.38;0.40;;;;;;;5.43;87.46;99563.06;3617626;39;20104;-61
2021/05/24 09:22:23;;;;;;;2.92;1.10;;;;;;;5.41;87.26;99568.31;3626206;39;20127;-61
2021/05/24 09:24:51;;;;;;;1.35;0.50;;;;;;;5.37;86.45;99569.47;3617608;39;20772;-61
2021/05/24 09:27:21;;;;;;;1.02;0.30;;;;;;;5.36;87.08;99578.16;3617573;39;20121;-60
2021/05/24 09:29:48;;;;;;;0.60;0.40;;;;;;;5.27;88.53;99586.50;3626417;39;20475;-60
2021/05/24 09:32:25;;;;;;;0.43;0.32;;;;;;;5.27;88.05;99592.53;3626803;39;20051;-61
2021/05/24 09:34:55;;;;;;;6.05;2.15;;;;;;;5.19;88.85;99604.28;3626560;39;20412;-62
2021/05/24 09:37:34;;;;;;;13.88;5.95;;;;;;;5.20;87.28;99609.38;3625887;39;20069;-61
2021/05/24 09:40:20;;;;;;;2.03;0.68;;;;;;;5.10;87.06;99613.44;3617494;39;20039;-61
2021/05/24 09:42:52;;;;;;;2.20;0.50;;;;;;;5.07;86.90;99614.44;3617293;39;20087;-61
2021/05/24 09:45:21;;;;;;;0.65;0.30;;;;;;;4.91;88.12;99618.88;3617508;39;20249;-62
2021/05/24 09:47:49;;;;;;;1.63;0.45;;;;;;;4.84;87.19;99623.59;3618247;39;20185;-62
2021/05/24 09:50:20;;;;;;;202.75;89.28;;;;;;;4.86;88.00;99626.09;3607758;39;20423;-64
2021/05/24 09:52:49;;;;;;;50.15;21.70;;;;;;;4.92;88.41;99632.66;3617027;39;20062;-60
2021/05/24 09:55:22;;;;;;;3.45;1.70;;;;;;;4.89;88.55;99633.69;3617390;39;20083;-62
2021/05/24 09:58:01;;;;;;;3.03;0.57;;;;;;;4.86;87.89;99639.88;3617291;39;20066;-61
2021/05/24 10:00:40;;;;;;;0.63;0.30;;;;;;;4.92;87.18;99650.78;3624836;39;20050;-61
2021/05/24 10:03:10;;;;;;;0.32;0.30;;;;;;;4.79;87.81;99661.03;3625779;39;20051;-63
2021/05/24 10:05:39;;;;;;;0.38;0.30;;;;;;;4.92;87.67;99656.81;3607646;39;20127;-61
2021/05/24 10:08:07;;;;;;;0.40;0.30;;;;;;;4.99;88.15;99655.53;3617168;39;20043;-61
2021/05/24 10:10:36;;;;;;;0.30;0.20;;;;;;;5.09;88.05;99659.25;3617408;39;20048;-61
2021/05/24 10:13:04;;;;;;;0.30;0.20;;;;;;;5.18;88.24;99667.44;3617185;39;20055;-62
2021/05/24 10:15:35;;;;;;;1.95;0.35;;;;;;;5.14;87.88;99671.94;3616849;39;20059;-61
2021/05/24 10:18:04;;;;;;;0.93;0.63;;;;;;;5.12;89.02;99676.38;3622229;39;20058;-63
2021/05/24 10:20:35;;;;;;;0.82;0.50;;;;;;;5.12;87.00;99672.00;3617163;39;20051;-62
2021/05/24 10:23:03;;;;;;;0.55;0.30;;;;;;;5.07;87.93;99679.22;3616996;39;20070;-62
2021/05/24 10:25:35;;;;;;;0.98;0.60;;;;;;;5.10;87.80;99675.63;3617262;39;20058;-62
2021/05/24 10:28:05;;;;;;;0.35;0.25;;;;;;;5.02;87.72;99677.84;3617100;39;20039;-61
2021/05/24 10:30:58;;;;;;;143.70;56.67;;;;;;;5.06;87.46;99692.28;3626127;39;20078;-62
2021/05/24 10:33:42;;;;;;;135.35;61.47;;;;;;;5.01;87.17;99691.72;3626039;39;20058;-64
2021/05/24 10:36:30;;;;;;;14.25;6.63;;;;;;;4.98;87.17;99697.06;3616882;39;20050;-60
2021/05/24 10:39:23;;;;;;;2.45;1.08;;;;;;;4.92;87.08;99700.03;3623990;39;20043;-62
2021/05/24 10:41:57;;;;;;;1.23;0.30;;;;;;;4.80;86.83;99702.41;3625979;39;20059;-61
2021/05/24 10:44:40;;;;;;;0.52;0.20;;;;;;;4.80;86.78;99707.59;3622232;39;20047;-60
2021/05/24 10:47:22;;;;;;;0.45;0.20;;;;;;;4.84;87.14;99714.25;3625736;39;20059;-61
2021/05/24 10:50:05;;;;;;;0.20;0.20;;;;;;;4.75;87.88;99719.13;3627453;39;20305;-60
2021/05/24 10:52:35;;;;;;;0.45;0.30;;;;;;;4.74;86.00;99722.63;3627668;39;20043;-61
2021/05/24 10:55:25;;;;;;;0.30;0.30;;;;;;;4.68;87.43;99728.16;3627279;39;20050;-61
2021/05/24 10:58:14;;;;;;;0.20;0.20;;;;;;;4.76;88.20;99734.59;3627243;39;20139;-59
2021/05/24 11:01:03;;;;;;;0.80;0.30;;;;;;;4.76;88.66;99728.56;3623196;39;20059;-61
2021/05/24 11:03:32;;;;;;;0.20;0.20;;;;;;;4.82;87.38;99733.41;3618722;39;20066;-60
2021/05/24 11:06:13;;;;;;;0.32;0.28;;;;;;;4.77;88.07;99741.44;3618864;39;20403;-62
2021/05/24 11:08:49;;;;;;;0.30;0.20;;;;;;;4.77;87.30;99738.84;3618457;39;20087;-63
2021/05/24 11:11:28;;;;;;;2.63;0.28;;;;;;;4.81;87.25;99750.69;3625467;39;20050;-61
2021/05/24 11:14:04;;;;;;;49.40;22.25;;;;;;;4.78;87.36;99755.22;3627336;39;20046;-61
2021/05/24 11:16:34;;;;;;;11.80;4.80;;;;;;;4.83;87.81;99751.44;3627541;39;20610;-61
2021/05/24 11:19:11;;;;;;;1.80;0.57;;;;;;;4.80;87.25;99755.97;3618651;39;20072;-60
2021/05/24 11:21:41;;;;;;;0.30;0.30;;;;;;;4.72;86.99;99761.56;3618397;39;20043;-62
2021/05/24 11:27:25;;;;;;;0.10;0.10;;;;;;;4.71;87.38;99774.63;3625601;39;20055;-61
2021/05/24 11:30:28;;;;;;;0.20;0.20;;;;;;;4.59;87.54;99781.28;3584873;40;20056;-61
2021/05/24 11:32:55;;;;;;;0.32;0.30;;;;;;;4.52;85.63;99792.91;3627261;39;20408;-61
2021/05/24 11:35:27;;;;;;;4.65;1.40;;;;;;;4.40;86.83;99801.34;3627411;39;20062;-60
2021/05/24 11:37:55;;;;;;;0.30;0.30;;;;;;;4.39;86.85;99797.09;3624381;39;20611;-60
2021/05/24 11:40:23;;;;;;;0.22;0.20;;;;;;;4.49;86.78;99800.84;3618716;39;20059;-60
2021/05/24 11:42:50;;;;;;;0.20;0.20;;;;;;;4.50;87.40;99805.94;3618104;39;20402;-61
2021/05/24 11:45:21;;;;;;;0.20;0.20;;;;;;;4.55;88.53;99806.50;3618142;39;20048;-60
2021/05/24 11:47:59;;;;;;;0.68;0.20;;;;;;;4.63;87.90;99811.28;3618283;39;20417;-60
2021/05/24 11:50:28;;;;;;;0.32;0.20;;;;;;;4.59;87.79;99810.63;3618266;39;20059;-60
2021/05/24 11:52:55;;;;;;;0.20;0.20;;;;;;;4.69;87.16;99818.72;3608656;39;20047;-60
2021/05/24 11:55:23;;;;;;;65.30;31.38;;;;;;;4.52;86.56;99818.81;3608659;39;20144;-59
2021/05/24 11:57:50;;;;;;;12.55;5.38;;;;;;;4.61;86.87;99824.34;3617515;39;20421;-60